Time;durP1;ratioP1;P1;durP2;ratioP2;P2;SDS_P1;SDS_P2;PMS_P1;PMS_P2;Temp;Humidity;BMP_temperature;BMP_pressure;BME280_temperature;BME280_humidity;BME280_pressure;Samples;Min_cycle;Max_cycle;Signal;HPM_P1;HPM_P2
2023/03/13 00:02:26;;;;;;;17.60;12.13;;;;;;;5.22;100.00;100163.41;7394342;19;20492;-70
2023/03/13 00:04:54;;;;;;;20.02;13.07;;;;;;;5.22;100.00;100161.66;7394427;19;20032;-72
2023/03/13 00:07:23;;;;;;;20.05;12.90;;;;;;;5.22;100.00;100155.63;7394300;19;20081;-70
2023/03/13 00:09:51;;;;;;;21.10;13.18;;;;;;;5.24;100.00;100147.78;7394951;19;20047;-70
2023/03/13 00:12:20;;;;;;;17.55;12.40;;;;;;;5.24;100.00;100143.44;7393953;19;20011;-70
2023/03/13 00:14:48;;;;;;;15.80;11.95;;;;;;;5.26;100.00;100146.91;7393521;19;20507;-70
2023/03/13 00:17:16;;;;;;;14.93;10.93;;;;;;;5.26;100.00;100141.69;7396469;19;20097;-70
2023/03/13 00:19:48;;;;;;;18.25;12.32;;;;;;;5.27;100.00;100143.44;7393877;19;20070;-72
2023/03/13 00:22:16;;;;;;;16.17;10.98;;;;;;;5.28;100.00;100145.16;7395518;19;20015;-69
2023/03/13 00:24:44;;;;;;;16.90;11.10;;;;;;;5.27;100.00;100133.03;7397268;19;20018;-70
2023/03/13 00:27:13;;;;;;;13.50;10.52;;;;;;;5.29;100.00;100136.47;7403452;19;20070;-70
2023/03/13 00:29:42;;;;;;;14.55;10.68;;;;;;;5.30;100.00;100132.13;7400287;19;20537;-70
2023/03/13 00:32:10;;;;;;;16.38;10.13;;;;;;;5.29;100.00;100136.47;7400742;19;20018;-69
2023/03/13 00:34:39;;;;;;;13.52;9.38;;;;;;;5.29;100.00;100141.66;7400978;19;20022;-70
2023/03/13 00:37:10;;;;;;;20.60;9.27;;;;;;;5.30;100.00;100134.75;7403940;19;20082;-70
2023/03/13 00:39:38;;;;;;;17.17;11.20;;;;;;;5.30;100.00;100130.38;7402299;19;20086;-70
2023/03/13 00:42:07;;;;;;;13.68;9.25;;;;;;;5.30;100.00;100132.13;7403871;19;20546;-70
2023/03/13 00:44:36;;;;;;;15.98;9.82;;;;;;;5.31;100.00;100132.13;7400959;19;20071;-70
2023/03/13 00:47:05;;;;;;;18.60;9.50;;;;;;;5.32;100.00;100132.97;7401829;19;20022;-70
2023/03/13 00:49:34;;;;;;;13.40;9.07;;;;;;;5.32;100.00;100130.34;7403775;19;20018;-70
2023/03/13 00:52:03;;;;;;;14.55;9.18;;;;;;;5.33;100.00;100132.09;7405287;19;20545;-70
2023/03/13 00:54:40;;;;;;;15.23;9.18;;;;;;;5.32;100.00;100130.34;7402851;19;20088;-69
2023/03/13 00:57:08;;;;;;;12.20;8.13;;;;;;;5.32;100.00;100123.44;7404462;19;20394;-70
2023/03/13 00:59:37;;;;;;;11.27;7.55;;;;;;;5.33;100.00;100121.69;7404584;19;20022;-70
2023/03/13 01:02:06;;;;;;;14.70;8.40;;;;;;;5.26;100.00;100104.41;7401776;19;20027;-70
2023/03/13 01:04:34;;;;;;;13.55;7.85;;;;;;;5.34;100.00;100108.66;7426619;19;20026;-70
2023/03/13 01:07:02;;;;;;;13.55;8.10;;;;;;;5.35;100.00;100110.38;7427908;19;20011;-69
2023/03/13 01:09:31;;;;;;;13.70;7.78;;;;;;;5.38;100.00;100104.28;7428514;19;20025;-69
2023/03/13 01:12:02;;;;;;;14.45;8.63;;;;;;;5.39;100.00;100103.41;7430567;19;20026;-69
2023/03/13 01:14:30;;;;;;;16.80;7.55;;;;;;;5.39;100.00;100100.81;7428688;19;20032;-68
2023/03/13 01:16:59;;;;;;;19.27;7.20;;;;;;;5.41;100.00;100103.41;7427686;19;20019;-69
2023/03/13 01:19:27;;;;;;;13.85;7.32;;;;;;;5.42;100.00;100099.91;7426582;19;20010;-70
2023/03/13 01:21:56;;;;;;;14.02;7.35;;;;;;;5.41;100.00;100093.88;7427714;19;20022;-70
2023/03/13 01:24:31;;;;;;;8.77;7.10;;;;;;;5.43;100.00;100083.44;7427303;19;20019;-70
2023/03/13 01:27:02;;;;;;;11.25;6.85;;;;;;;5.44;100.00;100085.16;7428802;19;20019;-69
2023/03/13 01:29:31;;;;;;;11.20;6.65;;;;;;;5.44;100.00;100082.56;7425250;19;20015;-70
2023/03/13 01:31:59;;;;;;;10.85;6.68;;;;;;;5.44;100.00;100075.59;7426009;19;20014;-70
2023/03/13 01:34:27;;;;;;;13.07;6.70;;;;;;;5.44;100.00;100086.00;7421442;19;20011;-70
2023/03/13 01:36:56;;;;;;;12.45;5.70;;;;;;;5.45;100.00;100092.94;7419245;19;20018;-69
2023/03/13 01:39:24;;;;;;;13.43;6.07;;;;;;;5.45;100.00;100089.50;7419734;19;20027;-70
2023/03/13 01:41:53;;;;;;;8.43;4.93;;;;;;;5.45;100.00;100087.75;7397198;19;20018;-70
2023/03/13 01:44:28;;;;;;;11.57;5.82;;;;;;;5.46;100.00;100081.66;7397010;19;20018;-70
2023/03/13 01:46:57;;;;;;;14.90;6.38;;;;;;;5.48;100.00;100076.44;7399648;19;20015;-71
2023/03/13 01:49:32;;;;;;;9.93;5.65;;;;;;;5.48;100.00;100077.28;7399588;19;20087;-70
2023/03/13 01:52:04;;;;;;;13.27;5.32;;;;;;;5.49;100.00;100073.81;7396605;19;20030;-70
2023/03/13 01:54:36;;;;;;;15.63;5.47;;;;;;;5.51;100.00;100058.19;7397959;19;20037;-71
2023/03/13 01:57:08;;;;;;;11.95;5.45;;;;;;;5.48;100.00;100040.00;7397334;19;20089;-70
2023/03/13 01:59:45;;;;;;;13.77;5.30;;;;;;;5.52;100.00;100044.28;7396592;19;20510;-70
2023/03/13 02:02:14;;;;;;;18.35;5.70;;;;;;;5.54;100.00;100045.16;7397088;19;20082;-70
2023/03/13 02:04:48;;;;;;;11.23;5.20;;;;;;;5.55;100.00;100039.91;7396695;19;20074;-70
2023/03/13 02:07:21;;;;;;;15.00;5.00;;;;;;;5.57;100.00;100042.50;7396130;19;20552;-70
2023/03/13 02:09:52;;;;;;;9.30;5.25;;;;;;;5.58;100.00;100040.75;7398342;19;20083;-70
2023/03/13 02:12:28;;;;;;;12.57;5.80;;;;;;;5.57;100.00;100032.09;7398914;19;20018;-70
2023/03/13 02:15:01;;;;;;;16.40;5.45;;;;;;;5.52;100.00;100023.47;7397194;19;20089;-70
2023/03/13 02:17:31;;;;;;;11.30;5.03;;;;;;;5.60;100.00;100021.66;7397442;19;20212;-70
2023/03/13 02:19:59;;;;;;;14.38;4.43;;;;;;;5.62;100.00;100019.03;7396043;19;20066;-70
2023/03/13 02:22:34;;;;;;;11.00;4.07;;;;;;;5.61;100.00;100018.16;7397046;19;20035;-70
2023/03/13 02:25:10;;;;;;;13.40;4.35;;;;;;;5.56;100.00;100009.56;7396184;19;20010;-70
2023/03/13 02:27:41;;;;;;;10.23;4.32;;;;;;;5.60;100.00;100019.03;7395914;19;20506;-70
2023/03/13 02:30:11;;;;;;;14.73;5.03;;;;;;;5.63;100.00;100015.53;7398052;19;20081;-69
2023/03/13 02:32:40;;;;;;;10.05;4.32;;;;;;;5.63;100.00;100021.59;7397521;19;20087;-69
2023/03/13 02:35:12;;;;;;;15.18;5.38;;;;;;;5.65;100.00;100014.63;7395708;19;20026;-69
2023/03/13 02:37:43;;;;;;;16.17;4.85;;;;;;;5.66;100.00;100011.16;7398085;19;20081;-70
2023/03/13 02:40:16;;;;;;;12.50;4.57;;;;;;;5.67;100.00;100006.81;7395922;19;20074;-70
2023/03/13 02:42:49;;;;;;;18.37;4.67;;;;;;;5.69;100.00;100012.88;7395369;19;20485;-69
2023/03/13 02:45:19;;;;;;;13.10;5.32;;;;;;;5.71;100.00;100011.09;7396141;19;20167;-69
2023/03/13 02:47:47;;;;;;;9.27;4.22;;;;;;;5.73;100.00;100001.53;7394366;19;20506;-69
2023/03/13 02:50:17;;;;;;;18.05;4.60;;;;;;;5.71;100.00;99998.94;7395694;19;20085;-70
2023/03/13 02:52:47;;;;;;;16.35;4.68;;;;;;;5.75;100.00;99998.88;7396610;19;20425;-69
2023/03/13 02:55:21;;;;;;;14.85;4.88;;;;;;;5.77;100.00;99994.53;7395348;19;20039;-69
2023/03/13 02:57:52;;;;;;;13.57;4.50;;;;;;;5.79;100.00;99992.78;7395803;19;20015;-70
2023/03/13 03:00:25;;;;;;;13.02;4.28;;;;;;;5.79;100.00;99982.38;7395532;19;20038;-69
2023/03/13 03:02:54;;;;;;;15.20;4.60;;;;;;;5.81;100.00;99980.59;7394944;19;20082;-71
2023/03/13 03:05:23;;;;;;;16.88;5.05;;;;;;;5.81;100.00;99977.97;7394503;19;20365;-69
2023/03/13 03:07:52;;;;;;;17.55;4.35;;;;;;;5.81;100.00;99973.66;7394757;19;20386;-69
2023/03/13 03:10:21;;;;;;;15.23;5.63;;;;;;;5.83;100.00;99973.63;7396187;19;20537;-69
2023/03/13 03:12:59;;;;;;;16.85;4.05;;;;;;;5.82;100.00;99972.75;7394768;19;20523;-69
2023/03/13 03:15:27;;;;;;;12.43;4.85;;;;;;;5.83;100.00;99973.63;7395106;19;20155;-69
2023/03/13 03:17:56;;;;;;;13.00;4.88;;;;;;;5.84;100.00;99962.34;7394052;19;20566;-70
2023/03/13 03:20:24;;;;;;;10.77;3.95;;;;;;;5.85;100.00;99964.03;7393406;19;20002;-70
2023/03/13 03:22:53;;;;;;;14.27;4.38;;;;;;;5.86;100.00;99960.56;7395316;19;20014;-69
2023/03/13 03:25:21;;;;;;;11.98;4.53;;;;;;;5.87;99.67;99946.66;7394338;19;20086;-70
2023/03/13 03:27:50;;;;;;;13.07;4.03;;;;;;;5.88;100.00;99948.38;7395385;19;20342;-70
2023/03/13 03:30:21;;;;;;;23.35;4.95;;;;;;;5.90;100.00;99948.34;7395744;19;20078;-70
2023/03/13 03:33:01;;;;;;;18.60;5.40;;;;;;;5.88;100.00;99932.75;7399102;19;20585;-70
2023/03/13 03:35:30;;;;;;;12.40;4.07;;;;;;;5.89;100.00;99939.69;7399906;19;20025;-70
2023/03/13 03:37:58;;;;;;;13.75;5.13;;;;;;;5.89;100.00;99929.28;7394292;19;20066;-69
2023/03/13 03:40:27;;;;;;;16.52;5.38;;;;;;;5.90;100.00;99923.16;7393833;19;20081;-69
2023/03/13 03:42:55;;;;;;;18.55;4.95;;;;;;;5.90;100.00;99928.38;7393389;19;20541;-70
2023/03/13 03:45:27;;;;;;;15.40;4.78;;;;;;;5.91;100.00;99921.44;7393488;19;20029;-69
2023/03/13 03:47:58;;;;;;;15.32;4.45;;;;;;;5.92;100.00;99913.59;7394015;19;20060;-69
2023/03/13 03:50:27;;;;;;;24.17;5.03;;;;;;;5.93;100.00;99915.31;7395623;19;20023;-69
2023/03/13 03:52:55;;;;;;;14.13;4.40;;;;;;;5.95;100.00;99913.56;7393135;19;20496;-70
2023/03/13 03:55:24;;;;;;;17.38;4.65;;;;;;;5.96;100.00;99912.66;7393689;19;20086;-69
2023/03/13 03:57:52;;;;;;;19.75;4.35;;;;;;;5.97;99.94;99906.56;7395297;19;20077;-70
2023/03/13 04:00:21;;;;;;;21.88;4.82;;;;;;;5.99;99.96;99899.63;7400790;19;20082;-70
2023/03/13 04:02:52;;;;;;;10.82;4.38;;;;;;;6.00;100.00;99892.66;7400233;19;20070;-70
2023/03/13 04:05:20;;;;;;;16.92;4.50;;;;;;;6.03;100.00;99879.63;7402409;19;20074;-70
2023/03/13 04:07:49;;;;;;;15.30;4.65;;;;;;;6.05;99.59;99883.03;7399539;19;20082;-70
2023/03/13 04:10:18;;;;;;;19.83;4.50;;;;;;;6.05;100.00;99870.00;7402113;19;20081;-70
2023/03/13 04:12:46;;;;;;;19.77;4.38;;;;;;;6.10;100.00;99875.16;7399838;19;20156;-70
2023/03/13 04:15:15;;;;;;;12.32;4.00;;;;;;;6.11;98.65;99874.28;7399416;19;20021;-71
2023/03/13 04:17:43;;;;;;;21.45;5.22;;;;;;;6.14;99.94;99866.41;7399052;19;20018;-71
2023/03/13 04:20:15;;;;;;;14.57;4.00;;;;;;;6.15;100.00;99865.50;7398380;19;20011;-70
2023/03/13 04:22:44;;;;;;;17.33;4.30;;;;;;;6.11;100.00;99843.88;7399424;19;20077;-70
2023/03/13 04:25:12;;;;;;;15.60;4.05;;;;;;;6.17;99.79;99846.38;7398798;19;20545;-70
2023/03/13 04:27:44;;;;;;;15.10;4.00;;;;;;;6.19;99.78;99847.22;7400671;19;20094;-70
2023/03/13 04:30:13;;;;;;;19.63;3.60;;;;;;;6.21;99.65;99844.56;7398949;19;20557;-70
2023/03/13 04:32:42;;;;;;;20.48;5.30;;;;;;;6.22;99.70;99838.47;7399084;19;20090;-70
2023/03/13 04:35:13;;;;;;;22.70;4.97;;;;;;;6.24;99.27;99841.03;7398958;19;20077;-71
2023/03/13 04:37:42;;;;;;;17.17;4.78;;;;;;;6.26;98.88;99831.47;7399873;19;20374;-69
2023/03/13 04:40:12;;;;;;;15.63;4.97;;;;;;;6.25;99.98;99824.53;7402338;19;20032;-70
2023/03/13 04:42:41;;;;;;;15.15;4.43;;;;;;;6.26;99.38;99823.66;7400369;19;20013;-70
2023/03/13 04:45:13;;;;;;;18.35;4.25;;;;;;;6.27;99.88;99814.94;7399889;19;20027;-70
2023/03/13 04:47:41;;;;;;;21.05;4.18;;;;;;;6.27;100.00;99815.81;7400724;19;20082;-69
2023/03/13 04:50:11;;;;;;;18.80;4.53;;;;;;;6.28;99.53;99819.25;7399837;19;20014;-69
2023/03/13 04:52:42;;;;;;;17.92;4.28;;;;;;;6.27;100.00;99820.13;7404565;19;20051;-69
2023/03/13 04:55:11;;;;;;;23.33;4.78;;;;;;;6.28;100.00;99811.44;7401282;19;20502;-69
2023/03/13 04:57:39;;;;;;;19.45;4.22;;;;;;;6.27;100.00;99808.00;7399565;19;20026;-70
2023/03/13 05:00:11;;;;;;;21.38;4.78;;;;;;;6.27;100.00;99801.91;7401910;19;20021;-70
2023/03/13 05:02:39;;;;;;;15.85;4.10;;;;;;;6.24;100.00;99789.78;7401045;19;20015;-70
2023/03/13 05:05:08;;;;;;;16.60;4.30;;;;;;;6.27;100.00;99792.38;7398687;19;20090;-70
2023/03/13 05:07:37;;;;;;;16.92;3.83;;;;;;;6.25;100.00;99780.25;7398271;19;20014;-70
2023/03/13 05:10:08;;;;;;;16.80;4.20;;;;;;;6.23;100.00;99777.69;7397585;19;20541;-68
2023/03/13 05:12:37;;;;;;;19.77;4.55;;;;;;;6.22;100.00;99767.28;7398042;19;20077;-69
2023/03/13 05:15:06;;;;;;;17.25;3.70;;;;;;;6.21;100.00;99774.25;7397840;19;20505;-68
2023/03/13 05:17:34;;;;;;;14.88;4.57;;;;;;;6.20;100.00;99764.72;7400552;19;20419;-69
2023/03/13 05:20:05;;;;;;;21.90;4.38;;;;;;;6.18;100.00;99771.72;7399398;19;20010;-69
2023/03/13 05:22:33;;;;;;;16.52;4.10;;;;;;;6.18;100.00;99763.91;7400231;19;20019;-69
2023/03/13 05:25:01;;;;;;;14.18;3.83;;;;;;;6.16;100.00;99758.69;7398668;19;20153;-69
2023/03/13 05:27:33;;;;;;;19.08;3.92;;;;;;;6.15;100.00;99754.38;7397738;19;20517;-69
2023/03/13 05:30:02;;;;;;;18.42;4.45;;;;;;;6.13;100.00;99743.13;7399076;19;20023;-69
2023/03/13 05:32:30;;;;;;;21.42;4.75;;;;;;;6.13;100.00;99735.31;7398449;19;20078;-67
2023/03/13 05:34:59;;;;;;;17.38;4.97;;;;;;;6.12;100.00;99737.97;7397977;19;20435;-69
2023/03/13 05:37:27;;;;;;;27.50;7.43;;;;;;;6.12;100.00;99732.75;7397945;19;20562;-69
2023/03/13 05:39:56;;;;;;;22.88;5.80;;;;;;;6.11;100.00;99718.03;7398368;19;20082;-68
2023/03/13 05:42:25;;;;;;;19.67;6.13;;;;;;;6.10;100.00;99708.47;7397605;19;20115;-68
2023/03/13 05:44:56;;;;;;;20.48;4.85;;;;;;;6.10;100.00;99703.28;7397493;19;20357;-68
2023/03/13 05:47:25;;;;;;;15.52;4.32;;;;;;;6.11;100.00;99691.97;7398727;19;20018;-68
2023/03/13 05:49:53;;;;;;;24.98;4.68;;;;;;;6.11;100.00;99689.38;7398532;19;20119;-68
2023/03/13 05:52:22;;;;;;;24.27;5.50;;;;;;;6.11;100.00;99687.63;7398324;19;20078;-68
2023/03/13 05:54:50;;;;;;;16.88;4.30;;;;;;;6.13;100.00;99684.97;7397933;19;20032;-69
2023/03/13 05:57:19;;;;;;;19.83;5.03;;;;;;;6.15;100.00;99685.81;7398813;19;20441;-69
2023/03/13 05:59:47;;;;;;;19.98;4.68;;;;;;;6.15;100.00;99671.03;7398166;19;20481;-68
2023/03/13 06:02:19;;;;;;;25.00;5.45;;;;;;;6.17;100.00;99674.47;7398613;19;20066;-68
2023/03/13 06:04:48;;;;;;;16.08;4.47;;;;;;;6.18;100.00;99670.97;7398380;19;20010;-69
2023/03/13 06:07:16;;;;;;;25.27;4.80;;;;;;;6.21;100.00;99661.41;7400390;19;20026;-68
2023/03/13 06:09:45;;;;;;;17.40;4.63;;;;;;;6.22;100.00;99658.75;7398643;19;20050;-67
2023/03/13 06:12:14;;;;;;;22.23;4.25;;;;;;;6.24;100.00;99654.34;7400699;19;20123;-68
2023/03/13 06:14:42;;;;;;;28.33;5.28;;;;;;;6.27;100.00;99650.81;7398317;19;20019;-68
2023/03/13 06:17:10;;;;;;;17.23;4.40;;;;;;;6.28;100.00;99644.72;7397861;19;20070;-69
2023/03/13 06:19:42;;;;;;;15.38;3.72;;;;;;;6.28;100.00;99624.75;7397400;19;20078;-68
2023/03/13 06:22:10;;;;;;;14.43;3.95;;;;;;;6.32;100.00;99620.34;7396158;19;20010;-68
2023/03/13 06:24:39;;;;;;;25.10;4.43;;;;;;;6.32;100.00;99605.56;7395543;19;20437;-68
2023/03/13 06:27:09;;;;;;;15.45;3.72;;;;;;;6.34;100.00;99600.31;7396087;19;20078;-69
2023/03/13 06:29:59;;;;;;;22.52;4.13;;;;;;;6.38;100.00;99595.88;7397456;19;20014;-70
2023/03/13 06:32:27;;;;;;;16.35;4.47;;;;;;;6.40;100.00;99591.50;7395796;19;20026;-70
2023/03/13 06:34:58;;;;;;;24.33;5.55;;;;;;;6.43;100.00;99583.63;7399849;19;20082;-69
2023/03/13 06:37:26;;;;;;;17.70;3.90;;;;;;;6.46;100.00;99575.75;7405292;19;20015;-68
2023/03/13 06:39:55;;;;;;;26.55;5.13;;;;;;;6.49;100.00;99576.50;7399948;19;20074;-68
2023/03/13 06:42:23;;;;;;;14.63;4.25;;;;;;;6.51;100.00;99585.16;7396589;19;20085;-69
2023/03/13 06:44:52;;;;;;;19.10;5.72;;;;;;;6.57;100.00;99580.69;7395626;19;20094;-68
2023/03/13 06:47:20;;;;;;;15.43;3.50;;;;;;;6.59;100.00;99571.94;7395972;19;20082;-71
2023/03/13 06:49:49;;;;;;;16.80;3.92;;;;;;;6.65;100.00;99584.81;7396463;19;20090;-71
2023/03/13 06:52:20;;;;;;;22.50;4.70;;;;;;;6.81;100.00;99580.09;7395929;19;20014;-71
2023/03/13 06:54:48;;;;;;;12.70;4.03;;;;;;;6.98;100.00;99578.81;7396320;19;20070;-70
2023/03/13 06:57:23;;;;;;;18.63;4.82;;;;;;;7.07;100.00;99575.09;7395360;19;20010;-71
2023/03/13 06:59:51;;;;;;;20.25;4.53;;;;;;;7.11;100.00;99579.34;7395973;19;20034;-71
2023/03/13 07:02:20;;;;;;;15.30;3.85;;;;;;;7.11;100.00;99579.34;7396104;19;20090;-70
2023/03/13 07:04:48;;;;;;;27.67;4.68;;;;;;;7.12;100.00;99586.28;7395841;19;20017;-70
2023/03/13 07:07:16;;;;;;;19.70;4.03;;;;;;;7.11;100.00;99585.41;7396109;19;20074;-70
2023/03/13 07:09:48;;;;;;;21.23;4.20;;;;;;;7.12;100.00;99581.06;7395185;19;20557;-70
2023/03/13 07:12:16;;;;;;;17.17;4.20;;;;;;;7.10;100.00;99565.47;7396843;19;20019;-70
2023/03/13 07:14:44;;;;;;;20.05;4.18;;;;;;;7.08;100.00;99543.75;7395610;19;20549;-70
2023/03/13 07:17:13;;;;;;;24.35;4.43;;;;;;;7.06;100.00;99545.53;7395529;19;20015;-70
2023/03/13 07:19:55;;;;;;;18.67;5.47;;;;;;;7.04;100.00;99546.47;7396051;19;20022;-70
2023/03/13 07:22:23;;;;;;;19.13;4.43;;;;;;;7.01;100.00;99552.63;7395486;19;20015;-70
2023/03/13 07:24:54;;;;;;;18.17;3.60;;;;;;;6.98;100.00;99534.47;7394260;19;20027;-70
2023/03/13 07:27:23;;;;;;;16.45;4.78;;;;;;;7.00;100.00;99543.97;7396731;19;20031;-70
2023/03/13 07:29:51;;;;;;;17.88;4.45;;;;;;;7.00;100.00;99536.16;7394181;19;20024;-70
2023/03/13 07:32:20;;;;;;;17.58;4.20;;;;;;;6.99;100.00;99524.00;7394447;19;20037;-70
2023/03/13 07:34:48;;;;;;;20.50;4.25;;;;;;;7.03;100.00;99518.69;7393294;19;20014;-70
2023/03/13 07:37:18;;;;;;;16.88;3.92;;;;;;;7.01;100.00;99510.91;7393262;19;20082;-70
2023/03/13 07:39:46;;;;;;;17.50;4.30;;;;;;;7.03;100.00;99514.34;7395445;19;20454;-70
2023/03/13 07:42:17;;;;;;;20.80;4.18;;;;;;;7.05;100.00;99522.13;7393375;19;20074;-70
2023/03/13 07:44:46;;;;;;;23.20;4.70;;;;;;;7.06;100.00;99518.63;7393495;19;20082;-70
2023/03/13 07:47:14;;;;;;;19.67;4.60;;;;;;;7.08;100.00;99512.47;7393286;19;20082;-70
2023/03/13 07:49:45;;;;;;;23.38;5.18;;;;;;;7.10;100.00;99515.91;7393134;19;20082;-70
2023/03/13 07:52:13;;;;;;;15.23;3.42;;;;;;;7.11;100.00;99508.91;7393614;19;20015;-70
2023/03/13 07:54:42;;;;;;;18.42;4.60;;;;;;;7.14;100.00;99511.44;7393373;19;20026;-72
2023/03/13 07:57:10;;;;;;;16.65;4.50;;;;;;;7.16;100.00;99507.03;7393612;19;20022;-70
2023/03/13 07:59:41;;;;;;;16.23;3.95;;;;;;;7.16;100.00;99494.84;7395073;19;20077;-70
2023/03/13 08:02:13;;;;;;;20.33;3.83;;;;;;;7.20;100.00;99510.41;7393388;19;20018;-71
2023/03/13 08:04:41;;;;;;;25.42;4.65;;;;;;;7.22;100.00;99506.03;7392838;19;20509;-70
2023/03/13 08:07:10;;;;;;;26.63;4.90;;;;;;;7.23;100.00;99498.16;7393470;19;20095;-68
2023/03/13 08:09:40;;;;;;;23.48;5.20;;;;;;;7.23;100.00;99485.09;7393587;19;20081;-69
2023/03/13 08:12:09;;;;;;;27.23;5.40;;;;;;;7.24;100.00;99491.16;7396749;19;20014;-67
2023/03/13 08:14:40;;;;;;;26.02;5.07;;;;;;;7.25;100.00;99482.44;7393696;19;20082;-67
2023/03/13 08:17:09;;;;;;;18.13;4.07;;;;;;;7.25;100.00;99472.00;7393911;19;20022;-68
2023/03/13 08:19:37;;;;;;;24.48;5.57;;;;;;;7.24;100.00;99476.38;7393745;19;20095;-67
2023/03/13 08:22:06;;;;;;;20.02;4.50;;;;;;;7.25;100.00;99474.63;7393385;19;20031;-66
2023/03/13 08:24:34;;;;;;;19.58;5.47;;;;;;;7.26;100.00;99464.13;7392731;19;20576;-67
2023/03/13 08:27:03;;;;;;;27.58;5.75;;;;;;;7.26;100.00;99461.53;7395649;19;20014;-68
2023/03/13 08:29:31;;;;;;;16.25;4.90;;;;;;;7.28;100.00;99467.56;7393704;19;20083;-67
2023/03/13 08:32:02;;;;;;;18.40;4.53;;;;;;;7.32;100.00;99463.97;7392520;19;20074;-67
2023/03/13 08:34:31;;;;;;;15.88;4.38;;;;;;;7.36;100.00;99454.31;7393867;19;20018;-66
2023/03/13 08:36:59;;;;;;;17.88;4.20;;;;;;;7.41;100.00;99457.63;7393044;19;20510;-69
2023/03/13 08:39:28;;;;;;;16.23;4.15;;;;;;;7.45;100.00;99453.19;7395595;19;20029;-65
2023/03/13 08:41:56;;;;;;;15.38;4.05;;;;;;;7.50;100.00;99446.06;7393021;19;20078;-67
2023/03/13 08:44:24;;;;;;;15.40;3.63;;;;;;;7.54;100.00;99452.06;7392642;19;20070;-67
2023/03/13 08:46:53;;;;;;;15.52;4.53;;;;;;;7.58;100.00;99451.91;7399934;19;20050;-67
2023/03/13 08:49:24;;;;;;;18.30;3.83;;;;;;;7.63;100.00;99441.31;7402236;19;20059;-67
2023/03/13 08:51:52;;;;;;;12.77;4.03;;;;;;;7.68;100.00;99455.09;7402667;19;20090;-67
2023/03/13 08:54:21;;;;;;;15.57;4.03;;;;;;;7.73;100.00;99447.13;7399937;19;20078;-71
2023/03/13 08:56:49;;;;;;;14.98;3.80;;;;;;;7.78;100.00;99438.22;7401909;19;20082;-71
2023/03/13 08:59:18;;;;;;;17.58;4.82;;;;;;;7.82;100.00;99432.03;7399340;19;20074;-68
2023/03/13 09:01:46;;;;;;;11.32;4.10;;;;;;;7.86;100.00;99443.25;7398972;19;20070;-68
2023/03/13 09:04:15;;;;;;;20.02;4.38;;;;;;;7.92;100.00;99429.13;7398483;19;20073;-70
2023/03/13 09:06:46;;;;;;;13.68;3.35;;;;;;;7.96;100.00;99428.97;7398521;19;20380;-68
2023/03/13 09:09:16;;;;;;;14.57;3.47;;;;;;;8.01;100.00;99420.13;7400448;19;20036;-70
2023/03/13 09:11:44;;;;;;;14.95;3.70;;;;;;;8.04;100.00;99427.84;7403756;19;20085;-66
2023/03/13 09:14:13;;;;;;;13.27;3.58;;;;;;;8.05;100.00;99421.72;7400351;19;20035;-66
2023/03/13 09:16:41;;;;;;;16.38;3.75;;;;;;;8.07;100.00;99426.00;7400206;19;20019;-66
2023/03/13 09:19:10;;;;;;;14.43;3.22;;;;;;;8.11;100.00;99432.00;7400442;19;20019;-69
2023/03/13 09:21:38;;;;;;;12.02;3.63;;;;;;;8.12;100.00;99426.69;7398664;19;20019;-65
2023/03/13 09:24:10;;;;;;;11.82;2.53;;;;;;;8.14;100.00;99429.28;7399423;19;20094;-65
2023/03/13 09:26:38;;;;;;;18.35;3.83;;;;;;;8.17;100.00;99431.78;7402194;19;20402;-69
2023/03/13 09:29:07;;;;;;;9.75;3.63;;;;;;;8.20;100.00;99418.66;7399501;19;20082;-64
2023/03/13 09:31:37;;;;;;;8.63;2.90;;;;;;;8.20;100.00;99415.16;7398479;19;20026;-65
2023/03/13 09:34:05;;;;;;;11.35;2.80;;;;;;;8.28;100.00;99423.59;7397530;19;20481;-66
2023/03/13 09:36:34;;;;;;;11.95;3.03;;;;;;;8.31;100.00;99418.25;7398317;19;20485;-66
2023/03/13 09:39:02;;;;;;;10.65;3.33;;;;;;;8.35;100.00;99421.63;7399083;19;20035;-67
2023/03/13 09:41:38;;;;;;;8.93;2.55;;;;;;;8.41;100.00;99429.28;7400060;19;20019;-67
2023/03/13 09:44:12;;;;;;;6.90;2.28;;;;;;;8.47;100.00;99421.25;7398753;19;20026;-67
2023/03/13 09:46:46;;;;;;;11.18;2.85;;;;;;;8.51;100.00;99414.16;7400236;19;20011;-67
2023/03/13 09:49:24;;;;;;;11.43;2.80;;;;;;;8.56;100.00;99412.25;7401205;19;20021;-67
2023/03/13 09:52:00;;;;;;;10.77;3.47;;;;;;;8.60;100.00;99414.69;7397045;19;20082;-65
2023/03/13 09:54:34;;;;;;;9.07;2.80;;;;;;;8.66;100.00;99416.25;7398995;19;20090;-66
2023/03/13 09:57:10;;;;;;;8.85;2.50;;;;;;;8.71;100.00;99421.31;7395934;19;20549;-67
2023/03/13 09:59:49;;;;;;;16.90;6.35;;;;;;;8.77;100.00;99421.06;7398831;19;20035;-66
2023/03/13 10:02:30;;;;;;;4.70;2.05;;;;;;;8.82;100.00;99429.63;7397784;19;20022;-66
2023/03/13 10:05:07;;;;;;;6.68;2.00;;;;;;;8.90;100.00;99422.34;7396844;19;20027;-69
2023/03/13 10:07:36;;;;;;;5.60;1.67;;;;;;;8.99;100.00;99430.78;7399705;19;20078;-66
2023/03/13 10:10:08;;;;;;;5.93;1.88;;;;;;;9.06;100.00;99427.03;7396392;19;20074;-66
2023/03/13 10:12:43;;;;;;;6.38;1.60;;;;;;;9.11;100.00;99423.34;7397834;19;20019;-66
2023/03/13 10:15:30;;;;;;;4.05;1.70;;;;;;;9.19;100.00;99436.13;7395951;19;20094;-66
2023/03/13 10:18:02;;;;;;;5.50;1.60;;;;;;;9.25;100.00;99427.19;7396271;19;20069;-69
2023/03/13 10:20:35;;;;;;;5.30;1.70;;;;;;;9.29;100.00;99429.66;7396397;19;20015;-68
2023/03/13 10:23:08;;;;;;;4.90;1.38;;;;;;;9.33;100.00;99419.06;7398056;19;20078;-67
2023/03/13 10:25:39;;;;;;;6.93;2.65;;;;;;;9.36;99.34;99408.47;7398715;19;20073;-67
2023/03/13 10:28:13;;;;;;;7.90;1.60;;;;;;;9.42;98.94;99413.47;7396438;19;20485;-67
2023/03/13 10:30:48;;;;;;;3.83;2.00;;;;;;;9.46;100.00;99399.34;7397659;19;20066;-67
2023/03/13 10:33:26;;;;;;;5.85;1.77;;;;;;;9.49;98.98;99393.16;7396139;19;20457;-65
2023/03/13 10:36:08;;;;;;;4.70;1.65;;;;;;;9.55;98.88;99403.38;7396183;19;20011;-67
2023/03/13 10:38:46;;;;;;;3.03;1.42;;;;;;;9.59;98.60;99397.09;7395664;19;20596;-69
2023/03/13 10:41:27;;;;;;;2.83;1.10;;;;;;;9.63;98.97;99385.63;7396077;19;20075;-67
2023/03/13 10:44:02;;;;;;;4.78;2.42;;;;;;;9.69;99.31;99389.75;7397647;19;20077;-66
2023/03/13 10:46:32;;;;;;;5.80;1.80;;;;;;;9.74;97.60;99385.19;7396715;19;20038;-67
2023/03/13 10:49:04;;;;;;;4.60;1.00;;;;;;;9.79;98.10;99380.59;7398150;19;20059;-68
2023/03/13 10:51:42;;;;;;;5.30;1.63;;;;;;;9.81;96.97;99380.53;7396482;19;20078;-66
2023/03/13 10:54:23;;;;;;;3.10;1.35;;;;;;;9.87;95.76;99382.91;7395577;19;20517;-65
2023/03/13 10:56:53;;;;;;;6.97;4.60;;;;;;;9.92;97.65;99373.09;7397312;19;20469;-65
2023/03/13 10:59:29;;;;;;;2.28;1.08;;;;;;;9.97;97.44;99368.53;7396375;19;20027;-65
2023/03/13 11:02:02;;;;;;;5.15;1.27;;;;;;;10.01;98.26;99364.00;7395688;19;20028;-67
2023/03/13 11:04:33;;;;;;;3.15;1.58;;;;;;;10.08;97.04;99350.59;7396422;19;20077;-65
2023/03/13 11:07:05;;;;;;;2.72;1.40;;;;;;;10.15;96.97;99343.34;7396730;19;20070;-67
2023/03/13 11:09:34;;;;;;;1.63;1.02;;;;;;;10.23;95.71;99349.06;7394951;19;20021;-66
2023/03/13 11:12:11;;;;;;;3.78;1.40;;;;;;;10.24;97.13;99342.94;7394779;19;20079;-66
2023/03/13 11:14:42;;;;;;;3.28;1.33;;;;;;;10.40;98.43;99348.41;7395642;19;20074;-66
2023/03/13 11:17:26;;;;;;;1.65;0.98;;;;;;;10.49;98.17;99341.91;7396371;19;20078;-66
2023/03/13 11:20:07;;;;;;;2.22;1.02;;;;;;;10.62;95.20;99336.97;7396372;19;20078;-67
2023/03/13 11:22:54;;;;;;;3.17;1.13;;;;;;;10.74;94.68;99320.69;7394214;19;20011;-66
2023/03/13 11:25:29;;;;;;;2.47;1.55;;;;;;;10.86;94.29;99314.00;7394679;19;20022;-67
2023/03/13 11:28:06;;;;;;;;;;;;;;;11.00;92.55;99300.25;7395493;19;20031;-69
2023/03/13 11:31:05;;;;;;;8.73;4.60;;;;;;;11.14;91.76;99312.72;7396787;19;19986;-68
2023/03/13 11:33:44;;;;;;;2.83;1.40;;;;;;;11.27;92.13;99315.63;7395466;19;20039;-72
2023/03/13 11:36:20;;;;;;;2.53;1.23;;;;;;;11.38;91.66;99302.84;7395211;19;20055;-70
2023/03/13 11:38:54;;;;;;;1.65;0.75;;;;;;;11.48;92.28;99281.41;7394626;19;20035;-71
2023/03/13 11:41:58;;;;;;;1.77;0.98;;;;;;;11.58;89.18;99294.00;7397273;19;20094;-71